KC6RZW-10 Weather Reports


Display with metric or nautical units.
time (UTC)temp
F
wind
direction
speed
MPH
gust
MPH
rain 1hr
in
rain 24hr
in
rain mn
in
humidity
%
barometer
mb
20210917215853 0 0.0 0.0 0.00 0.00 0.00
20210917215624 80 190 4.0 8.0 0.00 0.00 0.00 23 1002.9
20210917215124 80 190 4.0 8.0 0.00 0.00 0.00 22 1002.9
20210917214625 80 178 6.0 10.0 0.00 0.00 0.00 22 1002.9
20210917214245 0 0.0 0.0 0.00 0.00 0.00
20210917214124 81 176 5.0 10.0 0.00 0.00 0.00 21 1002.7
20210917213641 0 0.0 0.0 0.00 0.00 0.00
20210917213624 82 186 3.0 9.0 0.00 0.00 0.00 22 1002.7
20210917213440 0 0.0 0.0 0.00 0.00 0.00
20210917213124 81 183 2.0 9.0 0.00 0.00 0.00 22 1003.0
20210917212634 0 0.0 0.0 0.00 0.00 0.00
20210917212626 80 187 2.0 9.0 0.00 0.00 0.00 22 1003.0
20210917212433 0 0.0 0.0 0.00 0.00 0.00
20210917212231 0 0.0 0.0 0.00 0.00 0.00
20210917212125 80 191 2.0 9.0 0.00 0.00 0.00 22 1003.0
20210917211829 0 0.0 0.0 0.00 0.00 0.00
20210917211624 79 192 1.0 11.0 0.00 0.00 0.00 22 1003.0
20210917211425 0 0.0 0.0 0.00 0.00 0.00
20210917211223 0 0.0 0.0 0.00 0.00 0.00
20210917211124 79 201 2.0 11.0 0.00 0.00 0.00 22 1003.0
20210917211022 0 0.0 0.0 0.00 0.00 0.00
20210917210819 0 0.0 0.0 0.00 0.00 0.00
20210917210624 79 211 3.0 10.0 0.00 0.00 0.00 22 1003.2
20210917210417 0 0.0 0.0 0.00 0.00 0.00
20210917210125 79 208 3.0 9.0 0.00 0.00 0.00 22 1003.2
20210917210015 0 0.0 0.0 0.00 0.00 0.00
20210917205814 0 0.0 0.0 0.00 0.00 0.00
20210917205624 80 184 1.0 10.0 0.00 0.00 0.00 22 1003.4
20210917205613 0 0.0 0.0 0.00 0.00 0.00
20210917205410 0 0.0 0.0 0.00 0.00 0.00
20210917205123 80 172 1.0 10.0 0.00 0.00 0.00 21 1003.4
20210917204624 80 149 1.0 9.0 0.00 0.00 0.00 22 1003.4
20210917204405 0 0.0 0.0 0.00 0.00 0.00
20210917204201 0 0.0 0.0 0.00 0.00 0.00
20210917204125 80 149 1.0 9.0 0.00 0.00 0.00 22 1003.4
20210917203759 0 0.0 0.0 0.00 0.00 0.00
20210917203624 79 158 0.0 1.0 0.00 0.00 0.00 22 1003.4
20210917203124 78 194 3.0 11.0 0.00 0.00 0.00 24 1003.7
20210917202623 78 188 5.0 12.0 0.00 0.00 0.00 24 1003.7
20210917202150 0 0.0 0.0 0.00 0.00 0.00
20210917202124 77 183 4.0 14.0 0.00 0.00 0.00 24 1003.9
20210917201624 77 194 3.0 14.0 0.00 0.00 0.00 24 1003.9
20210917201346 0 0.0 0.0 0.00 0.00 0.00
20210917201145 0 0.0 0.0 0.00 0.00 0.00
20210917201125 77 222 2.0 11.0 0.00 0.00 0.00 24 1003.9
20210917200624 77 213 2.0 11.0 0.00 0.00 0.00 25 1003.8
20210917200140 0 0.0 0.0 0.00 0.00 0.00
20210917200124 77 205 1.0 8.0 0.00 0.00 0.00 25 1003.8
20210917195624 77 202 0.0 1.0 0.00 0.00 0.00 29 1003.8
20210917195334 0 0.0 0.0 0.00 0.00 0.00
20210917195124 76 202 0.0 1.0 0.00 0.00 0.00 28 1003.8
20210917194730 0 0.0 0.0 0.00 0.00 0.00
20210917194624 76 203 0.0 0.0 0.00 0.00 0.00 30 1003.8
20210917194529 0 0.0 0.0 0.00 0.00 0.00
20210917194328 0 0.0 0.0 0.00 0.00 0.00
20210917194127 0 0.0 0.0 0.00 0.00 0.00
20210917194123 76 225 0.0 0.0 0.00 0.00 0.00 30 1004.1
20210917193725 0 0.0 0.0 0.00 0.00 0.00
20210917193624 75 270 0.0 0.0 0.00 0.00 0.00 30 1004.1
20210917193524 0 0.0 0.0 0.00 0.00 0.00
20210917193125 75 209 1.0 6.0 0.00 0.00 0.00 30 1004.4
20210917193121 0 0.0 0.0 0.00 0.00 0.00
20210917192717 0 0.0 0.0 0.00 0.00 0.00
20210917192624 74 214 1.0 6.0 0.00 0.00 0.00 31 1004.4
20210917192124 74 248 0.0 4.0 0.00 0.00 0.00 32 1004.8
20210917192114 0 0.0 0.0 0.00 0.00 0.00
20210917191623 74 224 0.0 5.0 0.00 0.00 0.00 34 1004.8
20210917191124 73 222 0.0 5.0 0.00 0.00 0.00 34 1004.8
20210917190704 0 0.0 0.0 0.00 0.00 0.00
20210917190624 73 158 0.0 2.0 0.00 0.00 0.00 35 1004.9
20210917190124 72 158 0.0 2.0 0.00 0.00 0.00 36 1004.9
20210917185624 71 225 0.0 0.0 0.00 0.00 0.00 37 1005.2
20210917185124 71 270 0.0 0.0 0.00 0.00 0.00 37 1005.2
20210917184648 0 0.0 0.0 0.00 0.00 0.00
20210917184624 70 270 0.0 0.0 0.00 0.00 0.00 37 1005.2
20210917184243 0 0.0 0.0 0.00 0.00 0.00
20210917184124 70 158 0.0 0.0 0.00 0.00 0.00 37 1005.2
20210917183840 0 0.0 0.0 0.00 0.00 0.00
20210917183638 0 0.0 0.0 0.00 0.00 0.00
20210917183624 69 338 0.0 0.0 0.00 0.00 0.00 37 1005.2
20210917183123 69 338 0.0 0.0 0.00 0.00 0.00 38 1005.3
20210917183035 0 0.0 0.0 0.00 0.00 0.00
20210917182624 69 270 0.0 0.0 0.00 0.00 0.00 39 1005.3
20210917182124 69 360 0.0 0.0 0.00 0.00 0.00 39 1005.5
20210917181829 0 0.0 0.0 0.00 0.00 0.00
20210917181624 68 360 0.0 0.0 0.00 0.00 0.00 39 1005.5
20210917181427 0 0.0 0.0 0.00 0.00 0.00
20210917181124 68 270 0.0 0.0 0.00 0.00 0.00 39 1005.5
20210917180624 68 270 0.0 0.0 0.00 0.00 0.00 38 1005.4
20210917180418 0 0.0 0.0 0.00 0.00 0.00
20210917180123 68 203 0.0 0.0 0.00 0.00 0.00 38 1005.4
20210917175624 68 293 0.0 0.0 0.00 0.00 0.00 38 1005.6
20210917175613 0 0.0 0.0 0.00 0.00 0.00
20210917175124 68 315 0.0 0.0 0.00 0.00 0.00 39 1005.6
20210917174624 67 315 0.0 0.0 0.00 0.00 0.00 40 1005.6
20210917174124 67 360 0.0 0.0 0.00 0.00 0.00 39 1005.6
20210917174003 0 0.0 0.0 0.00 0.00 0.00
20210917173624 67 225 0.0 0.0 0.00 0.00 0.00 40 1005.6
20210917173601 0 0.0 0.0 0.00 0.00 0.00
20210917173124 66 90 0.0 0.0 0.00 0.00 0.00 40 1005.7
20210917172623 66 270 0.0 0.0 0.00 0.00 0.00 41 1005.7
20210917172150 0 0.0 0.0 0.00 0.00 0.00
20210917172124 65 293 0.0 0.0 0.00 0.00 0.00 42 1005.7
20210917171949 0 0.0 0.0 0.00 0.00 0.00
20210917171748 0 0.0 0.0 0.00 0.00 0.00
20210917171623 65 315 0.0 0.0 0.00 0.00 0.00 42 1005.7
20210917171124 64 225 0.0 0.0 0.00 0.00 0.00 42 1005.7
20210917170740 0 0.0 0.0 0.00 0.00 0.00
20210917170624 64 270 0.0 0.0 0.00 0.00 0.00 43 1005.6
20210917170338 0 0.0 0.0 0.00 0.00 0.00
20210917170123 64 180 0.0 0.0 0.00 0.00 0.00 43 1005.6
20210917165624 63 90 0.0 0.0 0.00 0.00 0.00 43 1005.9
20210917165125 63 158 0.0 0.0 0.00 0.00 0.00 43 1005.9
20210917164929 0 0.0 0.0 0.00 0.00 0.00
20210917164624 62 338 0.0 0.0 0.00 0.00 0.00 43 1005.9
20210917164124 62 225 0.0 0.0 0.00 0.00 0.00 44 1006.0
20210917163721 0 0.0 0.0 0.00 0.00 0.00
20210917163623 62 293 0.0 0.0 0.00 0.00 0.00 44 1006.0
20210917163520 0 0.0 0.0 0.00 0.00 0.00
20210917163319 0 0.0 0.0 0.00 0.00 0.00
20210917163123 62 180 0.0 0.0 0.00 0.00 0.00 45 1006.0
20210917162713 0 0.0 0.0 0.00 0.00 0.00
20210917162624 61 135 0.0 0.0 0.00 0.00 0.00 45 1006.0
20210917162123 61 45 0.0 0.0 0.00 0.00 0.00 45 1006.2
20210917162110 0 0.0 0.0 0.00 0.00 0.00
20210917161909 0 0.0 0.0 0.00 0.00 0.00
20210917161708 0 0.0 0.0 0.00 0.00 0.00
20210917161623 61 90 0.0 0.0 0.00 0.00 0.00 46 1006.2
20210917161507 0 0.0 0.0 0.00 0.00 0.00
20210917161124 61 45 0.0 0.0 0.00 0.00 0.00 46 1006.2
20210917160624 60 203 0.0 0.0 0.00 0.00 0.00 46 1005.8
20210917160123 60 158 0.0 0.0 0.00 0.00 0.00 46 1005.8
20210917155658 0 0.0 0.0 0.00 0.00 0.00
20210917155624 60 270 0.0 0.0 0.00 0.00 0.00 46 1006.1
20210917155256 0 0.0 0.0 0.00 0.00 0.00
20210917155123 59 90 0.0 0.0 0.00 0.00 0.00 47 1006.1
20210917155055 0 0.0 0.0 0.00 0.00 0.00
20210917154652 0 0.0 0.0 0.00 0.00 0.00
20210917154624 59 113 0.0 0.0 0.00 0.00 0.00 48 1006.1
20210917154451 0 0.0 0.0 0.00 0.00 0.00
20210917154123 58 225 0.0 0.0 0.00 0.00 0.00 48 1005.8
20210917154049 0 0.0 0.0 0.00 0.00 0.00
20210917153848 0 0.0 0.0 0.00 0.00 0.00
20210917153647 0 0.0 0.0 0.00 0.00 0.00
20210917153624 57 158 0.0 0.0 0.00 0.00 0.00 48 1005.8
20210917153446 0 0.0 0.0 0.00 0.00 0.00
20210917153123 57 113 0.0 0.0 0.00 0.00 0.00 48 1006.1
20210917153044 0 0.0 0.0 0.00 0.00 0.00
20210917152623 57 90 0.0 0.0 0.00 0.00 0.00 48 1006.1
20210917152123 56 158 0.0 0.0 0.00 0.00 0.00 49 1006.2
20210917151623 56 203 0.0 0.0 0.00 0.00 0.00 49 1006.2
20210917151123 55 113 0.0 0.0 0.00 0.00 0.00 49 1006.2
20210917150623 55 225 0.0 0.0 0.00 0.00 0.00 49 1006.0
20210917150123 55 203 0.0 0.0 0.00 0.00 0.00 49 1006.0
20210917145824 0 0.0 0.0 0.00 0.00 0.00
20210917145624 55 338 0.0 0.0 0.00 0.00 0.00 49 1006.3
20210917145220 0 0.0 0.0 0.00 0.00 0.00
20210917145123 54 248 0.0 0.0 0.00 0.00 0.00 49 1006.3
20210917145019 0 0.0 0.0 0.00 0.00 0.00
20210917144623 54 113 0.0 0.0 0.00 0.00 0.00 49 1006.3
20210917144617 0 0.0 0.0 0.00 0.00 0.00
20210917144416 0 0.0 0.0 0.00 0.00 0.00
20210917144215 0 0.0 0.0 0.00 0.00 0.00
20210917144123 54 203 0.0 0.0 0.00 0.00 0.00 49 1006.3
20210917144014 0 0.0 0.0 0.00 0.00 0.00
20210917143813 0 0.0 0.0 0.00 0.00 0.00
20210917143623 54 225 0.0 0.0 0.00 0.00 0.00 49 1006.3
20210917143411 0 0.0 0.0 0.00 0.00 0.00
20210917143210 0 0.0 0.0 0.00 0.00 0.00
20210917143123 53 225 0.0 0.0 0.00 0.00 0.00 50 1006.4
20210917143009 0 0.0 0.0 0.00 0.00 0.00
20210917142808 0 0.0 0.0 0.00 0.00 0.00
20210917142624 53 23 0.0 0.0 0.00 0.00 0.00 50 1006.4
20210917142123 53 203 0.0 0.0 0.00 0.00 0.00 50 1006.4
20210917141623 53 180 0.0 0.0 0.00 0.00 0.00 50 1006.4
20210917141123 53 135 0.0 0.0 0.00 0.00 0.00 50 1006.4
20210917140623 52 23 0.0 0.0 0.00 0.00 0.00 50 1006.3
20210917140123 52 225 0.0 0.0 0.00 0.00 0.00 49 1006.3
20210917135623 52 180 0.0 0.0 0.00 0.00 0.00 49 1006.3
20210917135123 52 180 0.0 0.0 0.00 0.00 0.00 49 1006.3
20210917134624 52 180 0.0 0.0 0.00 0.00 0.00 49 1006.3
20210917134123 52 180 0.0 0.0 0.00 0.00 0.00 49 1006.4
20210917133623 52 203 0.0 0.0 0.00 0.00 0.00 49 1006.4
20210917133123 51 203 0.0 0.0 0.00 0.00 0.00 49 1006.4
20210917132623 51 203 0.0 0.0 0.00 0.00 0.00 49 1006.4
20210917132123 51 225 0.0 0.0 0.00 0.00 0.00 49 1006.4
20210917131623 51 270 0.0 0.0 0.00 0.00 0.00 49 1006.4
20210917131123 51 23 0.0 0.0 0.00 0.00 0.00 48 1006.4
20210917130624 51 270 0.0 0.0 0.00 0.00 0.00 48 1006.4
20210917130123 51 293 0.0 0.0 0.00 0.00 0.00 48 1006.4
20210917125623 51 203 0.0 0.0 0.00 0.00 0.00 48 1006.4
20210917125124 51 203 0.0 0.0 0.00 0.00 0.00 48 1006.4
20210917124623 51 248 0.0 0.0 0.00 0.00 0.00 48 1006.4
20210917124123 51 225 0.0 0.0 0.00 0.00 0.00 47 1006.4
20210917123903 0 0.0 0.0 0.00 0.00 0.00
20210917123623 52 225 0.0 0.0 0.00 0.00 0.00 47 1006.4
20210917123123 52 203 0.0 0.0 0.00 0.00 0.00 47 1006.3
20210917122623 52 203 0.0 0.0 0.00 0.00 0.00 46 1006.3
20210917122123 52 225 0.0 0.0 0.00 0.00 0.00 46 1006.4
20210917121623 52 225 0.0 0.0 0.00 0.00 0.00 46 1006.4
20210917121123 52 248 0.0 0.0 0.00 0.00 0.00 46 1006.4
20210917120623 52 248 0.0 0.0 0.00 0.00 0.00 46 1006.5
20210917120123 52 270 0.0 0.0 0.00 0.00 0.00 46 1006.5
20210917115623 52 248 0.0 0.0 0.00 0.00 0.00 45 1006.5
20210917115123 52 270 0.0 0.0 0.00 0.00 0.00 45 1006.5
20210917114623 52 180 0.0 0.0 0.00 0.00 0.00 45 1006.5
20210917114123 53 203 0.0 0.0 0.00 0.00 0.00 45 1006.4
20210917113623 53 225 0.0 0.0 0.00 0.00 0.00 44 1006.4
20210917113123 53 180 0.0 0.0 0.00 0.00 0.00 44 1006.4
20210917112623 53 180 0.0 0.0 0.00 0.00 0.00 44 1006.4
20210917112124 53 203 0.0 0.0 0.00 0.00 0.00 44 1006.5
20210917111623 53 180 0.0 0.0 0.00 0.00 0.00 44 1006.5
20210917111124 53 248 0.0 0.0 0.00 0.00 0.00 44 1006.5
20210917110623 53 203 0.0 0.0 0.00 0.00 0.00 44 1006.4
20210917110409 0 0.0 0.0 0.00 0.00 0.00
20210917110123 53 225 0.0 0.0 0.00 0.00 0.00 44 1006.4
20210917105624 53 270 0.0 0.0 0.00 0.00 0.00 43 1006.5
20210917105123 53 270 0.0 0.0 0.00 0.00 0.00 43 1006.5
20210917104622 53 225 0.0 0.0 0.00 0.00 0.00 43 1006.5
20210917104123 53 248 0.0 0.0 0.00 0.00 0.00 43 1006.5
20210917103624 53 225 0.0 0.0 0.00 0.00 0.00 43 1006.5
20210917103123 53 225 0.0 0.0 0.00 0.00 0.00 43 1006.4
20210917102623 53 180 0.0 0.0 0.00 0.00 0.00 43 1006.4
20210917102123 53 225 0.0 0.0 0.00 0.00 0.00 43 1006.6
20210917101623 53 248 0.0 0.0 0.00 0.00 0.00 43 1006.6
20210917101122 53 270 0.0 0.0 0.00 0.00 0.00 42 1006.6
20210917100623 53 293 0.0 0.0 0.00 0.00 0.00 42 1006.6
20210917100123 53 293 0.0 0.0 0.00 0.00 0.00 42 1006.6
20210917095623 53 225 0.0 0.0 0.00 0.00 0.00 41 1006.4
20210917095128 0 0.0 0.0 0.00 0.00 0.00
20210917095122 53 203 0.0 0.0 0.00 0.00 0.00 41 1006.4
20210917094623 53 180 0.0 0.0 0.00 0.00 0.00 41 1006.4
20210917094123 53 248 0.0 0.0 0.00 0.00 0.00 41 1006.3
20210917093622 54 203 0.0 0.0 0.00 0.00 0.00 41 1006.3
20210917093123 54 270 0.0 0.0 0.00 0.00 0.00 40 1006.2
20210917092622 54 270 0.0 0.0 0.00 0.00 0.00 40 1006.2
20210917092123 54 203 0.0 0.0 0.00 0.00 0.00 40 1006.2
20210917091623 54 270 0.0 0.0 0.00 0.00 0.00 40 1006.2
20210917091122 54 360 0.0 0.0 0.00 0.00 0.00 40 1006.2
20210917090905 0 0.0 0.0 0.00 0.00 0.00
20210917090623 54 270 0.0 0.0 0.00 0.00 0.00 39 1006.1
20210917090123 54 270 0.0 0.0 0.00 0.00 0.00 38 1006.1
20210917085658 0 0.0 0.0 0.00 0.00 0.00
20210917085623 54 225 0.0 0.0 0.00 0.00 0.00 38 1006.2
20210917085123 54 270 0.0 0.0 0.00 0.00 0.00 38 1006.2
20210917084623 54 293 0.0 0.0 0.00 0.00 0.00 38 1006.2
20210917084452 0 0.0 0.0 0.00 0.00 0.00
20210917084123 54 248 0.0 0.0 0.00 0.00 0.00 38 1006.1
20210917083623 54 270 0.0 0.0 0.00 0.00 0.00 38 1006.1
20210917083123 54 315 0.0 0.0 0.00 0.00 0.00 37 1006.2
20210917082623 55 225 0.0 0.0 0.00 0.00 0.00 36 1006.2
20210917082123 55 203 0.0 0.0 0.00 0.00 0.00 36 1006.1
20210917081623 55 270 0.0 0.0 0.00 0.00 0.00 36 1006.1
20210917081123 55 248 0.0 0.0 0.00 0.00 0.00 35 1006.1
20210917080623 55 203 0.0 0.0 0.00 0.00 0.00 35 1006.1
20210917080122 55 225 0.0 0.0 0.00 0.00 0.00 35 1006.1
20210917075623 55 270 0.0 0.0 0.00 0.00 0.00 35 1006.0
20210917075123 56 270 0.0 0.0 0.00 0.00 0.00 35 1006.0
20210917074623 56 293 0.0 0.0 0.00 0.00 0.00 34 1006.0
20210917074134 56 248 0.0 0.0 0.00 0.00 0.00 33 1006.3
20210917074122 56 225 0.0 0.0 0.00 0.00 0.00 33 1006.3
20210917073623 56 225 0.0 0.0 0.00 0.00 0.00 33 1006.3
20210917073123 56 248 0.0 0.0 0.00 0.00 0.00 33 1006.0
20210917072622 57 225 0.0 0.0 0.00 0.00 0.00 33 1006.0
20210917072123 57 248 0.0 0.0 0.00 0.00 0.00 32 1005.8
20210917071622 57 225 0.0 0.0 0.00 0.00 0.00 32 1005.8
20210917071122 57 225 0.0 0.0 0.00 0.00 0.00 32 1005.8
20210917070622 57 180 0.0 0.0 0.00 0.00 0.00 32 1005.9
20210917070123 57 248 0.0 0.0 0.00 0.00 0.00 32 1005.9
20210917065622 58 135 0.0 0.0 0.00 0.00 0.00 31 1006.0
20210917065123 58 225 0.0 0.0 0.00 0.00 0.00 31 1006.0
20210917064624 58 203 0.0 0.0 0.00 0.00 0.00 31 1005.8
20210917064125 58 225 0.0 0.0 0.00 0.00 0.00 31 1005.8
20210917063624 59 23 0.0 0.0 0.00 0.00 0.00 30 1005.8
20210917063533 0 0.0 0.0 0.00 0.00 0.00
20210917063124 59 248 0.0 0.0 0.00 0.00 0.00 31 1005.9
20210917062625 59 180 0.0 0.0 0.00 0.00 0.00 29 1005.9
20210917062125 59 225 0.0 0.0 0.00 0.00 0.00 29 1005.9
20210917061624 60 225 0.0 0.0 0.00 0.00 0.00 29 1005.9
20210917061124 60 338 0.0 0.0 0.00 0.00 0.00 29 1005.9
20210917060624 60 270 0.0 0.0 0.00 0.00 0.00 28 1005.8
20210917060314 0 0.0 0.0 0.00 0.00 0.00
20210917060125 61 203 0.0 0.0 0.00 0.00 0.00 27 1005.8
20210917055625 61 225 0.0 0.0 0.00 0.00 0.00 27 1005.9
20210917055124 61 225 0.0 0.0 0.00 0.00 0.00 27 1005.9
20210917054624 62 225 0.0 0.0 0.00 0.00 0.00 27 1005.9
20210917054124 62 270 0.0 0.0 0.00 0.00 0.00 27 1006.1
20210917053625 63 180 0.0 0.0 0.00 0.00 0.00 26 1006.1
20210917053124 63 180 0.0 0.0 0.00 0.00 0.00 25 1006.1
20210917052624 63 180 0.0 0.0 0.00 0.00 0.00 25 1006.1
20210917052124 64 203 0.0 0.0 0.00 0.00 0.00 25 1005.8
20210917051625 64 180 0.0 0.0 0.00 0.00 0.00 24 1005.8
20210917051125 64 225 0.0 0.0 0.00 0.00 0.00 24 1005.8
20210917050624 65 225 0.0 0.0 0.00 0.00 0.00 24 1006.1
20210917050124 65 203 0.0 0.0 0.00 0.00 0.00 24 1006.1
20210917045624 66 225 0.0 0.0 0.00 0.00 0.00 24 1006.0
20210917045125 66 248 0.0 0.0 0.00 0.00 0.00 24 1006.0
20210917044625 66 180 0.0 0.0 0.00 0.00 0.00 24 1006.1
20210917044123 66 248 0.0 0.0 0.00 0.00 0.00 23 1006.1
20210917043624 67 203 0.0 0.0 0.00 0.00 0.00 22 1006.1
20210917043123 67 158 0.0 0.0 0.00 0.00 0.00 21 1006.2
20210917042624 68 158 0.0 0.0 0.00 0.00 0.00 21 1006.2
20210917042123 68 270 0.0 0.0 0.00 0.00 0.00 21 1006.3
20210917041624 68 203 0.0 0.0 0.00 0.00 0.00 21 1006.3
20210917041124 68 225 0.0 0.0 0.00 0.00 0.00 21 1006.3
20210917040625 68 225 0.0 0.0 0.00 0.00 0.00 21 1006.6
20210917040125 69 225 0.0 0.0 0.00 0.00 0.00 21 1006.6
20210917035623 69 203 0.0 0.0 0.00 0.00 0.00 21 1006.5
20210917035124 69 203 0.0 0.0 0.00 0.00 0.00 20 1006.5
20210917034623 70 158 0.0 0.0 0.00 0.00 0.00 20 1006.5
20210917034125 70 270 0.0 0.0 0.00 0.00 0.00 20 1006.4
20210917033624 70 248 0.0 0.0 0.00 0.00 0.00 20 1006.4
20210917033123 70 180 0.0 0.0 0.00 0.00 0.00 19 1006.5
20210917032623 70 158 0.0 0.0 0.00 0.00 0.00 19 1006.5
20210917032123 70 158 0.0 0.0 0.00 0.00 0.00 19 1006.4
20210917031624 71 270 0.0 0.0 0.00 0.00 0.00 19 1006.4
20210917030624 71 23 0.0 1.0 0.00 0.00 0.00 18 1006.1
20210917030124 71 23 0.0 1.0 0.00 0.00 0.00 18 1006.1
20210917025623 71 315 0.0 0.0 0.00 0.00 0.00 18 1006.1
20210917025124 71 337 0.0 2.0 0.00 0.00 0.00 18 1006.1
20210917024623 72 337 0.0 2.0 0.00 0.00 0.00 18 1006.4
20210917024124 72 338 0.0 0.0 0.00 0.00 0.00 18 1006.4
20210917023623 72 360 0.0 0.0 0.00 0.00 0.00 17 1006.4
20210917023126 72 315 0.0 0.0 0.00 0.00 0.00 17 1006.4
20210917022625 72 23 0.0 0.0 0.00 0.00 0.00 17 1006.4
20210917022123 72 322 0.0 9.0 0.00 0.00 0.00 17 1006.7
20210917021623 73 322 0.0 9.0 0.00 0.00 0.00 17 1006.7
20210917021123 73 315 0.0 0.0 0.00 0.00 0.00 17 1006.7
20210917015624 73 327 1.0 9.0 0.00 0.00 0.00 17 1007.1
20210917015124 74 332 1.0 12.0 0.00 0.00 0.00 16 1007.1
20210917014624 74 326 1.0 12.0 0.00 0.00 0.00 16 1007.1
20210917014124 75 315 0.0 3.0 0.00 0.00 0.00 16 1007.1
20210917013624 75 2 1.0 8.0 0.00 0.00 0.00 16 1007.1
20210917013124 75 349 1.0 9.0 0.00 0.00 0.00 16 1007.2
20210917012624 76 292 0.0 9.0 0.00 0.00 0.00 15 1007.2
20210917012123 76 338 0.0 0.0 0.00 0.00 0.00 15 1007.4
20210917011624 77 23 0.0 1.0 0.00 0.00 0.00 15 1007.4
20210917011123 77 23 0.0 1.0 0.00 0.00 0.00 15 1007.4
20210917010624 78 23 0.0 1.0 0.00 0.00 0.00 15 1007.5
20210917010124 78 18 0.0 5.0 0.00 0.00 0.00 15 1007.5
20210917005623 78 15 0.0 5.0 0.00 0.00 0.00 15 1007.4
20210917005124 78 292 0.0 8.0 0.00 0.00 0.00 15 1007.4
20210917004623 79 321 1.0 8.0 0.00 0.00 0.00 15 1007.5
20210917004124 79 341 1.0 8.0 0.00 0.00 0.00 15 1007.5
20210917003623 79 315 0.0 1.0 0.00 0.00 0.00 15 1007.5
20210917003123 79 298 0.0 4.0 0.00 0.00 0.00 15 1007.8
20210917002623 79 287 0.0 4.0 0.00 0.00 0.00 15 1007.8
20210917002124 80 10 0.0 8.0 0.00 0.00 0.00 15 1007.7
20210917001624 80 38 0.0 8.0 0.00 0.00 0.00 15 1007.7
20210917001123 80 74 0.0 4.0 0.00 0.00 0.00 15 1007.7
20210917000623 80 270 0.0 2.0 0.00 0.00 0.00 15 1007.9
20210917000123 79 338 0.0 0.0 0.00 0.00 0.00 15 1007.9
20210916235737 0 0.0 0.0 0.00 0.00 0.00
20210916235624 79 333 0.0 5.0 0.00 0.00 0.00 15 1007.9
20210916235123 80 324 1.0 5.0 0.00 0.00 0.00 15 1007.9
20210916234624 80 355 1.0 8.0 0.00 0.00 0.00 15 1008.4
20210916234123 81 357 2.0 12.0 0.00 0.00 0.00 15 1008.4
20210916233724 0 0.0 0.0 0.00 0.00 0.00
20210916233623 81 343 1.0 12.0 0.00 0.00 0.00 15 1008.4
20210916233124 81 335 0.0 3.0 0.00 0.00 0.00 16 1008.6
20210916232918 0 0.0 0.0 0.00 0.00 0.00
20210916232717 0 0.0 0.0 0.00 0.00 0.00
20210916232623 81 325 0.0 3.0 0.00 0.00 0.00 16 1008.6
20210916232124 80 23 0.0 1.0 0.00 0.00 0.00 16 1008.6
20210916231623 80 23 1.0 6.0 0.00 0.00 0.00 16 1008.6
20210916231123 81 23 1.0 6.0 0.00 0.00 0.00 16 1008.6
20210916230623 81 23 0.0 3.0 0.00 0.00 0.00 17 1008.9
20210916230123 81 293 0.0 0.0 0.00 0.00 0.00 17 1008.9
20210916225658 0 0.0 0.0 0.00 0.00 0.00
20210916225623 81 315 0.0 1.0 0.00 0.00 0.00 17 1009.0
20210916225124 81 315 0.0 1.0 0.00 0.00 0.00 17 1009.0
20210916224624 81 183 0.0 5.0 0.00 0.00 0.00 18 1009.1
20210916224123 81 183 0.0 5.0 0.00 0.00 0.00 19 1009.1
20210916223624 81 302 2.0 9.0 0.00 0.00 0.00 19 1009.1
20210916223123 81 304 2.0 9.0 0.00 0.00 0.00 19 1009.3
20210916222623 80 329 0.0 4.0 0.00 0.00 0.00 20 1009.3
20210916222123 80 291 0.0 3.0 0.00 0.00 0.00 21 1009.6
20210916221623 80 318 1.0 10.0 0.00 0.00 0.00 21 1009.6
20210916221123 79 335 2.0 10.0 0.00 0.00 0.00 20 1009.6
20210916220829 0 0.0 0.0 0.00 0.00 0.00
20210916220623 79 14 1.0 7.0 0.00 0.00 0.00 24 1009.9
20210916220123 78 182 2.0 10.0 0.00 0.00 0.00 24 1009.9